Dixon, Kentucky
Current Conditions -  °F | °C
As of 5:15 PM on Wednesday 22 Oct 2014 (Local Time) from K2I0 Reporting Station
Clear Clear  
Wind Chill: 17°   Ceiling: Unl
Heat Index: 17°   Visibility: 10mi
Dew Point:   Wind: 5mph
Humidity: 49%   Direction: 30°NNE
Pressure: 30.23"   Gusts: NA
Location:  37.52°N, 87.69°W
Report Text: K2I0 222215Z AUTO 03004KT 10SM CLR 17/06 A3023 RMK AO2 T01660057
Loading
Personal Weather Stations






























Interactive Weather Map
Tropical Storm Tracking
New forecast layout! Learn more

10-Day Weather Forecast

Advertisements
Track Severe Weather on mobile